createdAt,value
2018-12-04T00:01:29.966Z,7.80
2018-12-04T00:03:58.108Z,7.70
2018-12-04T00:06:26.381Z,7.70
2018-12-04T00:08:54.645Z,7.70
2018-12-04T00:11:22.787Z,7.70
2018-12-04T00:13:51.271Z,7.80
2018-12-04T00:16:19.538Z,7.70
2018-12-04T00:18:48.046Z,7.80
2018-12-04T00:21:16.191Z,7.90
2018-12-04T00:23:44.414Z,7.80
2018-12-04T00:26:12.598Z,7.80
2018-12-04T00:28:40.785Z,7.90
2018-12-04T00:31:08.981Z,7.80
2018-12-04T00:33:37.271Z,7.90
2018-12-04T00:36:05.501Z,7.90
2018-12-04T00:38:33.888Z,7.90
2018-12-04T00:41:02.122Z,7.80
2018-12-04T00:43:30.702Z,7.80
2018-12-04T00:45:59.137Z,7.70
2018-12-04T00:48:27.338Z,7.70
2018-12-04T00:50:55.629Z,7.60
2018-12-04T00:53:23.914Z,7.60
2018-12-04T00:55:52.123Z,7.50
2018-12-04T00:58:20.330Z,7.60
2018-12-04T01:00:48.498Z,7.50
2018-12-04T01:03:16.826Z,7.50
2018-12-04T01:05:45.170Z,7.50
2018-12-04T01:08:13.463Z,7.40
2018-12-04T01:10:41.712Z,7.40
2018-12-04T01:13:09.905Z,7.40
2018-12-04T01:15:38.127Z,7.40
2018-12-04T01:18:06.400Z,7.40
2018-12-04T01:20:34.565Z,7.40
2018-12-04T01:23:02.735Z,7.40
2018-12-04T01:25:30.918Z,7.50
2018-12-04T01:27:59.831Z,7.40
2018-12-04T01:30:28.430Z,7.40
2018-12-04T01:32:56.600Z,7.30
2018-12-04T01:35:24.840Z,7.40
2018-12-04T01:37:53.024Z,7.40
2018-12-04T01:40:21.197Z,7.30
2018-12-04T01:42:49.451Z,7.30
2018-12-04T01:45:17.836Z,7.30
2018-12-04T01:50:43.256Z,7.30
2018-12-04T01:53:11.464Z,7.30
2018-12-04T01:55:39.915Z,7.20
2018-12-04T01:58:08.069Z,7.30
2018-12-04T02:00:36.253Z,7.30
2018-12-04T02:03:04.458Z,7.20
2018-12-04T02:05:32.712Z,7.20
2018-12-04T02:08:00.928Z,7.10
2018-12-04T02:10:29.064Z,7.10
2018-12-04T02:12:57.242Z,7.10
2018-12-04T02:15:25.425Z,7.00
2018-12-04T02:17:53.667Z,7.00
2018-12-04T02:20:21.851Z,7.10
2018-12-04T02:22:50.020Z,7.10
2018-12-04T02:25:18.323Z,7.10
2018-12-04T02:27:46.713Z,7.10
2018-12-04T02:30:15.069Z,7.10
2018-12-04T02:32:43.298Z,7.20
2018-12-04T02:35:11.612Z,7.30
2018-12-04T02:37:39.808Z,7.20
2018-12-04T02:40:08.093Z,7.10
2018-12-04T02:42:36.283Z,7.20
2018-12-04T02:45:05.386Z,7.20
2018-12-04T02:47:33.627Z,7.30
2018-12-04T02:50:01.915Z,7.20
2018-12-04T02:52:30.124Z,7.30
2018-12-04T02:54:58.459Z,7.30
2018-12-04T02:57:26.749Z,7.10
2018-12-04T02:59:55.001Z,7.10
2018-12-04T03:02:23.259Z,7.00
2018-12-04T03:04:51.434Z,7.00
2018-12-04T03:07:19.611Z,7.00
2018-12-04T03:09:47.969Z,7.00
2018-12-04T03:12:16.223Z,6.90
2018-12-04T03:14:44.580Z,6.90
2018-12-04T03:17:12.766Z,6.80
2018-12-04T03:19:40.960Z,6.80
2018-12-04T03:22:09.190Z,6.70
2018-12-04T03:24:37.400Z,6.70
2018-12-04T03:27:05.553Z,6.70
2018-12-04T03:29:33.800Z,6.70
2018-12-04T03:32:01.976Z,6.70
2018-12-04T03:34:30.183Z,6.60
2018-12-04T03:36:58.441Z,6.50
2018-12-04T03:39:26.683Z,6.40
2018-12-04T03:41:54.883Z,6.40
2018-12-04T03:44:23.076Z,6.40
2018-12-04T03:46:51.280Z,6.40
2018-12-04T03:49:19.741Z,6.30
2018-12-04T03:51:47.901Z,6.30
2018-12-04T03:54:16.056Z,6.30
2018-12-04T03:56:44.306Z,6.20
2018-12-04T03:59:12.452Z,6.30
2018-12-04T04:01:40.720Z,6.20
2018-12-04T04:04:08.996Z,6.20
2018-12-04T04:06:37.221Z,6.20
2018-12-04T04:09:06.317Z,6.10
2018-12-04T04:11:34.451Z,6.10
2018-12-04T04:14:02.792Z,6.10
2018-12-04T04:16:30.959Z,6.10
2018-12-04T04:18:59.147Z,6.10
2018-12-04T04:21:27.350Z,6.00
2018-12-04T04:23:55.537Z,6.00
2018-12-04T04:26:23.753Z,5.90
2018-12-04T04:28:52.038Z,6.00
2018-12-04T04:31:20.287Z,6.00
2018-12-04T04:33:48.516Z,5.90
2018-12-04T04:36:16.806Z,5.80
2018-12-04T04:38:45.115Z,5.80
2018-12-04T04:41:13.289Z,5.80
2018-12-04T04:43:41.450Z,5.70
2018-12-04T04:46:09.692Z,5.90
2018-12-04T04:48:37.880Z,5.80
2018-12-04T04:51:06.083Z,5.80
2018-12-04T04:53:34.281Z,5.80
2018-12-04T04:56:02.483Z,5.70
2018-12-04T04:58:30.730Z,5.70
2018-12-04T05:00:59.067Z,5.60
2018-12-04T05:03:27.275Z,5.60
2018-12-04T05:05:55.481Z,5.60
2018-12-04T05:08:25.774Z,5.60
2018-12-04T05:10:54.239Z,5.60
2018-12-04T05:13:22.397Z,5.50
2018-12-04T05:15:50.660Z,5.60
2018-12-04T05:18:18.882Z,5.60
2018-12-04T05:20:47.097Z,5.50
2018-12-04T05:23:15.379Z,5.50
2018-12-04T05:25:43.594Z,5.50
2018-12-04T05:28:11.803Z,5.50
2018-12-04T05:30:40.128Z,5.50
2018-12-04T05:33:08.301Z,5.50
2018-12-04T05:35:36.511Z,5.40
2018-12-04T05:38:04.768Z,5.30
2018-12-04T05:40:32.979Z,5.30
2018-12-04T05:43:01.175Z,5.20
2018-12-04T05:45:29.334Z,5.30
2018-12-04T05:47:57.541Z,5.30
2018-12-04T05:50:25.745Z,5.30
2018-12-04T05:53:06.065Z,5.20
2018-12-04T05:55:34.225Z,5.30
2018-12-04T05:58:02.463Z,5.30
2018-12-04T06:00:30.668Z,5.30
2018-12-04T06:02:58.862Z,5.20
2018-12-04T06:05:27.087Z,5.20
2018-12-04T06:07:55.260Z,5.30
2018-12-04T06:10:23.632Z,5.30
2018-12-04T06:12:52.006Z,5.20
2018-12-04T06:15:20.180Z,5.30
2018-12-04T06:17:48.413Z,5.40
2018-12-04T06:20:16.568Z,5.30
2018-12-04T06:22:44.776Z,5.20
2018-12-04T06:25:13.094Z,5.20
2018-12-04T06:27:41.256Z,5.20
2018-12-04T06:30:09.462Z,5.20
2018-12-04T06:32:37.829Z,5.20
2018-12-04T06:35:06.610Z,5.30
2018-12-04T06:37:34.813Z,5.30
2018-12-04T06:40:03.305Z,5.40
2018-12-04T06:42:31.529Z,5.40
2018-12-04T06:44:59.736Z,5.50
2018-12-04T06:47:27.980Z,5.60
2018-12-04T06:49:56.254Z,5.50
2018-12-04T06:52:24.453Z,5.50
2018-12-04T06:54:52.635Z,5.50
2018-12-04T06:57:20.819Z,5.40
2018-12-04T06:59:49.187Z,5.40
2018-12-04T07:02:17.330Z,5.40
2018-12-04T07:04:45.545Z,5.40
2018-12-04T07:07:14.243Z,5.50
2018-12-04T07:09:42.425Z,5.50
2018-12-04T07:12:10.656Z,5.50
2018-12-04T07:14:38.844Z,5.50
2018-12-04T07:17:07.300Z,5.40
2018-12-04T07:19:35.781Z,5.40
2018-12-04T07:22:03.996Z,5.40
2018-12-04T07:24:32.155Z,5.30
2018-12-04T07:27:00.303Z,5.30
2018-12-04T07:29:28.591Z,5.30
2018-12-04T07:31:56.760Z,5.20
2018-12-04T07:34:24.934Z,5.10
2018-12-04T07:36:53.081Z,5.00
2018-12-04T07:39:21.400Z,5.00
2018-12-04T07:41:49.641Z,5.00
2018-12-04T07:44:17.843Z,4.90
2018-12-04T07:46:46.036Z,5.00
2018-12-04T07:49:14.242Z,5.00
2018-12-04T07:51:42.407Z,5.00
2018-12-04T07:54:10.556Z,5.10
2018-12-04T07:56:38.724Z,5.10
2018-12-04T07:59:06.905Z,5.30
2018-12-04T08:01:35.107Z,5.30
2018-12-04T08:04:03.339Z,5.30
2018-12-04T08:06:31.491Z,5.20
2018-12-04T08:08:59.729Z,5.30
2018-12-04T08:11:27.921Z,5.20
2018-12-04T08:13:57.880Z,5.20
2018-12-04T08:16:26.035Z,5.20
2018-12-04T08:18:54.335Z,5.20
2018-12-04T08:21:22.825Z,5.20
2018-12-04T08:23:50.962Z,5.20
2018-12-04T08:26:19.283Z,5.20
2018-12-04T08:28:47.751Z,5.20
2018-12-04T08:31:16.101Z,5.20
2018-12-04T08:33:44.279Z,5.20
2018-12-04T08:36:12.576Z,5.20
2018-12-04T08:38:40.800Z,5.20
2018-12-04T08:41:08.973Z,5.30
2018-12-04T08:43:37.168Z,5.30
2018-12-04T08:46:05.378Z,5.40
2018-12-04T08:48:33.559Z,5.40
2018-12-04T08:51:01.765Z,5.40
2018-12-04T08:53:29.925Z,5.40
2018-12-04T08:55:58.694Z,5.50
2018-12-04T08:58:26.841Z,5.60
2018-12-04T09:00:55.015Z,5.60
2018-12-04T09:03:23.213Z,5.60
2018-12-04T09:05:51.403Z,5.60
2018-12-04T09:08:19.552Z,5.60
2018-12-04T09:10:47.791Z,5.60
2018-12-04T09:13:16.101Z,5.70
2018-12-04T09:15:44.427Z,5.70
2018-12-04T09:18:12.697Z,5.70
2018-12-04T09:20:41.077Z,5.60
2018-12-04T09:23:09.581Z,5.70
2018-12-04T09:25:37.931Z,5.70
2018-12-04T09:28:06.254Z,5.80
2018-12-04T09:30:34.777Z,6.00
2018-12-04T09:33:04.670Z,6.10
2018-12-04T09:35:33.199Z,6.10
2018-12-04T09:38:01.337Z,6.20
2018-12-04T09:40:29.541Z,6.20
2018-12-04T09:42:57.665Z,6.10
2018-12-04T09:45:25.891Z,6.10
2018-12-04T09:47:54.065Z,6.00
2018-12-04T09:50:22.337Z,6.00
2018-12-04T09:52:50.511Z,6.00
2018-12-04T09:55:18.693Z,6.00
2018-12-04T09:57:46.872Z,6.00
2018-12-04T10:00:15.046Z,6.10
2018-12-04T10:02:43.219Z,6.10
2018-12-04T10:05:11.471Z,6.20
2018-12-04T10:07:39.689Z,6.20
2018-12-04T10:10:07.921Z,6.20
2018-12-04T10:12:36.093Z,6.20
2018-12-04T10:15:05.858Z,6.20
2018-12-04T10:17:34.150Z,6.30
2018-12-04T10:20:02.679Z,6.30
2018-12-04T10:22:30.843Z,6.40
2018-12-04T10:24:59.008Z,6.40
2018-12-04T10:27:27.249Z,6.40
2018-12-04T10:29:55.565Z,6.40
2018-12-04T10:32:23.838Z,6.30
2018-12-04T10:34:52.019Z,6.20
2018-12-04T10:37:20.317Z,6.20
2018-12-04T10:39:48.506Z,6.10
2018-12-04T10:42:16.748Z,6.20
2018-12-04T10:44:45.002Z,6.20
2018-12-04T10:47:13.205Z,6.40
2018-12-04T10:49:41.474Z,6.50
2018-12-04T10:52:09.634Z,6.60
2018-12-04T10:54:37.927Z,6.80
2018-12-04T10:57:09.791Z,6.90
2018-12-04T10:59:36.458Z,6.90
2018-12-04T11:02:10.701Z,7.00
2018-12-04T11:04:39.127Z,7.10
2018-12-04T11:07:07.289Z,7.00
2018-12-04T11:09:35.470Z,7.10
2018-12-04T11:12:03.716Z,7.10
2018-12-04T11:14:31.949Z,7.30
2018-12-04T11:17:00.110Z,7.40
2018-12-04T11:19:28.304Z,7.30
2018-12-04T11:21:56.553Z,7.40
2018-12-04T11:24:24.932Z,7.40
2018-12-04T11:26:53.206Z,7.50
2018-12-04T11:29:21.448Z,7.50
2018-12-04T11:31:49.762Z,7.50
2018-12-04T11:34:17.912Z,7.50
2018-12-04T11:36:46.332Z,7.50
2018-12-04T11:39:14.602Z,7.50
2018-12-04T11:41:42.812Z,7.40
2018-12-04T11:44:11.017Z,7.50
2018-12-04T11:46:39.468Z,7.60
2018-12-04T11:49:07.619Z,7.50
2018-12-04T11:51:35.908Z,7.60
2018-12-04T11:54:04.168Z,7.50
2018-12-04T11:56:32.452Z,7.40
2018-12-04T11:59:02.138Z,7.40
2018-12-04T12:01:30.519Z,7.40
2018-12-04T12:03:58.786Z,7.50
2018-12-04T12:06:27.083Z,7.40
2018-12-04T12:08:55.244Z,7.30
2018-12-04T12:11:23.634Z,7.40
2018-12-04T12:13:51.864Z,7.40
2018-12-04T12:16:20.047Z,7.40
2018-12-04T12:18:48.228Z,7.40
2018-12-04T12:21:17.365Z,7.40
2018-12-04T12:23:45.616Z,7.30
2018-12-04T12:26:13.943Z,7.40
2018-12-04T12:28:42.269Z,7.50
2018-12-04T12:31:10.459Z,7.50
2018-12-04T12:33:38.738Z,7.40
2018-12-04T12:36:07.027Z,7.30
2018-12-04T12:38:35.289Z,7.10
2018-12-04T12:41:03.574Z,6.80
2018-12-04T12:43:31.740Z,6.60
2018-12-04T12:46:00.047Z,6.50
2018-12-04T12:48:28.184Z,6.40
2018-12-04T12:50:56.477Z,6.30
2018-12-04T12:53:24.649Z,6.40
2018-12-04T12:55:52.823Z,6.40
2018-12-04T12:58:20.996Z,6.40
2018-12-04T13:00:49.330Z,6.50
2018-12-04T13:03:19.312Z,6.50
2018-12-04T13:05:47.971Z,6.60
2018-12-04T13:08:16.212Z,6.70
2018-12-04T13:10:44.382Z,6.60
2018-12-04T13:13:12.591Z,6.50
2018-12-04T13:15:40.780Z,6.60
2018-12-04T13:18:09.163Z,6.70
2018-12-04T13:20:37.460Z,6.70
2018-12-04T13:23:05.674Z,6.70
2018-12-04T13:25:33.859Z,6.70
2018-12-04T13:28:02.243Z,6.70
2018-12-04T13:30:30.474Z,6.70
2018-12-04T13:32:58.758Z,6.70
2018-12-04T13:35:26.989Z,6.60
2018-12-04T13:37:55.158Z,6.60
2018-12-04T13:40:23.386Z,6.60
2018-12-04T13:42:51.771Z,6.70
2018-12-04T13:45:20.181Z,6.60
2018-12-04T13:47:48.454Z,6.60
2018-12-04T13:50:16.863Z,6.60
2018-12-04T13:52:45.168Z,6.50
2018-12-04T13:55:13.373Z,6.50
2018-12-04T13:57:41.558Z,6.50
2018-12-04T14:00:10.198Z,6.60
2018-12-04T14:02:38.458Z,6.60
2018-12-04T14:05:08.075Z,6.50
2018-12-04T14:07:36.537Z,6.50
2018-12-04T14:10:07.110Z,6.50
2018-12-04T14:12:35.246Z,6.40
2018-12-04T14:15:03.735Z,6.40
2018-12-04T14:17:32.552Z,6.50
2018-12-04T14:20:00.790Z,6.50
2018-12-04T14:22:29.086Z,6.60
2018-12-04T14:24:57.322Z,6.60
2018-12-04T14:27:25.531Z,6.60
2018-12-04T14:29:53.747Z,6.50
2018-12-04T14:32:21.925Z,6.50
2018-12-04T14:34:50.177Z,6.40
2018-12-04T14:37:18.690Z,6.30
2018-12-04T14:39:46.849Z,6.40
2018-12-04T14:42:15.195Z,6.30
2018-12-04T14:44:43.437Z,6.30
2018-12-04T14:47:11.747Z,6.10
2018-12-04T14:49:39.909Z,6.10
2018-12-04T14:52:08.159Z,6.10
2018-12-04T14:54:36.428Z,6.10
2018-12-04T14:57:05.674Z,6.00
2018-12-04T14:59:33.863Z,6.10
2018-12-04T15:02:02.119Z,6.10
2018-12-04T15:04:30.416Z,6.00
2018-12-04T15:06:58.841Z,6.00
2018-12-04T15:09:27.078Z,5.90
2018-12-04T15:11:55.354Z,5.80
2018-12-04T15:14:23.646Z,5.90
2018-12-04T15:16:54.972Z,5.90
2018-12-04T15:19:22.070Z,5.90
2018-12-04T15:21:50.266Z,5.90
2018-12-04T15:24:18.500Z,5.90
2018-12-04T15:26:46.980Z,5.90
2018-12-04T15:29:15.178Z,6.00
2018-12-04T15:31:43.577Z,5.90
2018-12-04T15:34:12.110Z,5.90
2018-12-04T15:36:40.655Z,6.00
2018-12-04T15:39:08.959Z,6.10
2018-12-04T15:41:37.197Z,6.10
2018-12-04T15:44:05.419Z,6.00
2018-12-04T15:46:33.660Z,5.90
2018-12-04T15:49:01.890Z,5.90
2018-12-04T15:51:30.182Z,5.80
2018-12-04T15:53:58.531Z,5.80
2018-12-04T15:56:26.797Z,5.80
2018-12-04T15:58:55.148Z,5.60
2018-12-04T16:01:23.333Z,5.50
2018-12-04T16:03:51.518Z,5.70
2018-12-04T16:06:19.914Z,5.70
2018-12-04T16:08:49.231Z,5.70
2018-12-04T16:11:17.410Z,5.70
2018-12-04T16:13:45.613Z,5.70
2018-12-04T16:16:15.712Z,5.80
2018-12-04T16:18:44.187Z,5.70
2018-12-04T16:21:12.443Z,5.70
2018-12-04T16:23:40.823Z,5.80
2018-12-04T16:26:09.081Z,5.80
2018-12-04T16:28:37.351Z,5.80
2018-12-04T16:31:05.700Z,5.90
2018-12-04T16:33:33.891Z,5.80
2018-12-04T16:36:02.109Z,5.80
2018-12-04T16:38:30.257Z,5.80
2018-12-04T16:40:58.416Z,5.80
2018-12-04T16:43:26.594Z,5.70
2018-12-04T16:45:54.766Z,5.60
2018-12-04T16:48:22.967Z,5.60
2018-12-04T16:50:51.141Z,5.50
2018-12-04T16:53:19.336Z,5.60
2018-12-04T16:55:47.983Z,5.40
2018-12-04T16:58:16.289Z,5.50
2018-12-04T17:00:44.457Z,5.40
2018-12-04T17:03:12.711Z,5.40
2018-12-04T17:05:40.980Z,5.40
2018-12-04T17:08:09.190Z,5.30
2018-12-04T17:10:37.642Z,5.30
2018-12-04T17:13:05.848Z,5.30
2018-12-04T17:15:34.020Z,5.40
2018-12-04T17:18:02.332Z,5.30
2018-12-04T17:20:30.581Z,5.30
2018-12-04T17:22:59.029Z,5.20
2018-12-04T17:25:27.197Z,5.20
2018-12-04T17:27:55.393Z,5.20
2018-12-04T17:30:23.721Z,5.10
2018-12-04T17:32:52.178Z,5.10
2018-12-04T17:35:20.394Z,5.20
2018-12-04T17:37:48.649Z,5.30
2018-12-04T17:40:16.982Z,5.20
2018-12-04T17:42:45.253Z,5.10
2018-12-04T17:45:13.624Z,5.00
2018-12-04T17:47:41.849Z,5.00
2018-12-04T17:50:10.089Z,5.00
2018-12-04T17:52:38.305Z,5.00
2018-12-04T17:55:06.720Z,4.90
2018-12-04T17:57:34.925Z,4.90
2018-12-04T18:00:04.566Z,4.90
2018-12-04T18:02:32.893Z,4.90
2018-12-04T18:05:01.076Z,4.80
2018-12-04T18:07:29.647Z,4.90
2018-12-04T18:09:57.928Z,4.90
2018-12-04T18:12:26.139Z,4.90
2018-12-04T18:14:54.403Z,4.80
2018-12-04T18:17:22.652Z,4.80
2018-12-04T18:19:50.935Z,4.70
2018-12-04T18:22:20.277Z,4.60
2018-12-04T18:24:49.033Z,4.70
2018-12-04T18:27:17.286Z,4.70
2018-12-04T18:29:45.458Z,4.60
2018-12-04T18:32:13.779Z,4.60
2018-12-04T18:34:42.100Z,4.70
2018-12-04T18:37:10.356Z,4.70
2018-12-04T18:39:38.539Z,4.70
2018-12-04T18:42:06.768Z,4.70
2018-12-04T18:44:34.967Z,4.60
2018-12-04T18:47:03.408Z,4.50
2018-12-04T18:49:31.650Z,4.50
2018-12-04T18:51:59.848Z,4.50
2018-12-04T18:54:28.223Z,4.50
2018-12-04T18:56:56.528Z,4.40
2018-12-04T18:59:24.667Z,4.40
2018-12-04T19:01:52.973Z,4.30
2018-12-04T19:04:21.182Z,4.30
2018-12-04T19:06:49.447Z,4.30
2018-12-04T19:09:17.705Z,4.30
2018-12-04T19:11:46.513Z,4.30
2018-12-04T19:14:14.711Z,4.30
2018-12-04T19:16:43.156Z,4.30
2018-12-04T19:19:11.298Z,4.20
2018-12-04T19:21:39.702Z,4.10
2018-12-04T19:24:07.949Z,4.10
2018-12-04T19:26:36.316Z,4.10
2018-12-04T19:29:04.884Z,4.20
2018-12-04T19:31:33.229Z,4.20
2018-12-04T19:34:01.592Z,4.10
2018-12-04T19:36:29.891Z,4.10
2018-12-04T19:38:58.058Z,4.10
2018-12-04T19:41:26.236Z,4.10
2018-12-04T19:43:56.535Z,4.30
2018-12-04T19:46:24.761Z,4.30
2018-12-04T19:48:53.022Z,4.30
2018-12-04T19:51:21.179Z,4.20
2018-12-04T19:53:49.389Z,4.20
2018-12-04T19:56:17.718Z,4.20
2018-12-04T19:58:46.102Z,4.10
2018-12-04T20:01:14.243Z,4.10
2018-12-04T20:03:42.546Z,4.10
2018-12-04T20:06:10.748Z,4.00
2018-12-04T20:08:44.625Z,3.90
2018-12-04T20:11:12.810Z,3.90
2018-12-04T20:13:41.030Z,3.90
2018-12-04T20:16:09.223Z,3.80
2018-12-04T20:18:37.532Z,3.90
2018-12-04T20:21:05.812Z,3.90
2018-12-04T20:23:34.040Z,3.80
2018-12-04T20:26:02.377Z,3.80
2018-12-04T20:28:30.546Z,3.90
2018-12-04T20:30:58.927Z,3.80
2018-12-04T20:33:27.197Z,3.70
2018-12-04T20:35:56.208Z,3.70
2018-12-04T20:38:24.438Z,3.60
2018-12-04T20:40:52.725Z,3.60
2018-12-04T20:43:21.127Z,3.50
2018-12-04T20:45:49.343Z,3.50
2018-12-04T20:48:17.522Z,3.50
2018-12-04T20:50:45.856Z,3.40
2018-12-04T20:53:14.056Z,3.50
2018-12-04T20:55:43.071Z,3.40
2018-12-04T20:58:11.245Z,3.40
2018-12-04T21:00:39.468Z,3.30
2018-12-04T21:03:07.757Z,3.30
2018-12-04T21:05:35.984Z,3.30
2018-12-04T21:08:04.208Z,3.20
2018-12-04T21:10:32.583Z,3.20
2018-12-04T21:13:00.865Z,3.20
2018-12-04T21:15:29.106Z,3.20
2018-12-04T21:17:57.316Z,3.30
2018-12-04T21:20:25.679Z,3.20
2018-12-04T21:22:54.686Z,3.20
2018-12-04T21:25:22.883Z,3.20
2018-12-04T21:27:56.719Z,3.30
2018-12-04T21:30:30.688Z,3.30
2018-12-04T21:36:08.340Z,3.40
2018-12-04T21:38:42.336Z,3.40
2018-12-04T21:41:12.555Z,3.20
2018-12-04T21:43:46.541Z,3.20
2018-12-04T21:46:20.411Z,3.20
2018-12-04T21:48:48.620Z,3.20
2018-12-04T21:51:16.851Z,3.30
2018-12-04T21:53:45.614Z,3.30
2018-12-04T21:56:13.825Z,3.20
2018-12-04T21:58:42.062Z,3.20
2018-12-04T22:01:11.986Z,3.20
2018-12-04T22:03:40.191Z,3.30
2018-12-04T22:06:08.329Z,3.30
2018-12-04T22:08:36.541Z,3.20
2018-12-04T22:11:04.726Z,3.20
2018-12-04T22:13:33.025Z,3.20
2018-12-04T22:16:01.212Z,3.10
2018-12-04T22:18:29.429Z,3.10
2018-12-04T22:20:57.666Z,3.10
2018-12-04T22:23:26.081Z,3.10
2018-12-04T22:25:54.307Z,3.10
2018-12-04T22:28:22.477Z,3.20
2018-12-04T22:30:50.681Z,3.20
2018-12-04T22:33:18.875Z,3.20
2018-12-04T22:35:47.147Z,3.10
2018-12-04T22:38:15.346Z,3.10
2018-12-04T22:40:43.531Z,3.00
2018-12-04T22:43:11.833Z,3.00
2018-12-04T22:45:40.213Z,3.00
2018-12-04T22:48:08.465Z,3.00
2018-12-04T22:50:36.604Z,3.00
2018-12-04T22:53:04.943Z,3.10
2018-12-04T22:55:33.167Z,3.00
2018-12-04T22:58:01.602Z,3.00
2018-12-04T23:00:37.506Z,3.10
2018-12-04T23:03:05.816Z,3.10
2018-12-04T23:05:34.119Z,3.10
2018-12-04T23:08:02.592Z,3.20
2018-12-04T23:10:30.969Z,3.10
2018-12-04T23:12:59.191Z,3.00
2018-12-04T23:15:27.460Z,3.00
2018-12-04T23:17:55.789Z,2.90
2018-12-04T23:20:24.180Z,2.90
2018-12-04T23:22:52.382Z,2.80
2018-12-04T23:25:20.608Z,2.80
2018-12-04T23:27:48.893Z,2.80
2018-12-04T23:30:17.147Z,2.70
2018-12-04T23:32:45.493Z,2.70
2018-12-04T23:35:13.875Z,2.60
2018-12-04T23:37:42.191Z,2.60
2018-12-04T23:40:10.464Z,2.60
2018-12-04T23:42:38.928Z,2.60
2018-12-04T23:45:07.337Z,2.60
2018-12-04T23:47:35.579Z,2.60
2018-12-04T23:50:04.773Z,2.60
2018-12-04T23:52:33.021Z,2.70
2018-12-04T23:55:01.235Z,2.70
2018-12-04T23:57:29.679Z,2.70
2018-12-04T23:59:57.942Z,2.70
